Time;durP1;ratioP1;P1;durP2;ratioP2;P2;SDS_P1;SDS_P2;PMS_P1;PMS_P2;Temp;Humidity;BMP_temperature;BMP_pressure;BME280_temperature;BME280_humidity;BME280_pressure;Samples;Min_cycle;Max_cycle;Signal;HPM_P1;HPM_P2
2022/03/04 00:00:20;;;;;;;0.30;0.30;;;3.10;81.00;;;;;;4993819;28;20174;-69
2022/03/04 00:02:46;;;;;;;3.30;3.03;;;3.00;79.50;;;;;;4994101;28;20191;-67
2022/03/04 00:05:11;;;;;;;0.67;0.67;;;3.10;78.10;;;;;;4993831;28;20413;-69
2022/03/04 00:07:37;;;;;;;0.80;0.80;;;3.20;77.20;;;;;;4994090;28;20209;-68
2022/03/04 00:10:03;;;;;;;0.40;0.40;;;3.20;77.10;;;;;;4993833;28;20192;-69
2022/03/04 00:12:29;;;;;;;0.30;0.30;;;3.30;77.20;;;;;;4993613;28;20199;-68
2022/03/04 00:14:55;;;;;;;0.40;0.40;;;3.30;76.40;;;;;;4997217;28;20228;-68
2022/03/04 00:17:21;;;;;;;0.43;0.43;;;3.20;76.40;;;;;;4997740;28;20487;-68
2022/03/04 00:19:46;;;;;;;0.30;0.30;;;3.20;77.30;;;;;;4997803;28;20205;-68
2022/03/04 00:22:14;;;;;;;1.00;1.00;;;3.20;76.80;;;;;;4997408;28;20174;-69
2022/03/04 00:24:40;;;;;;;0.40;0.40;;;3.20;76.50;;;;;;4997554;28;20188;-69
2022/03/04 00:27:05;;;;;;;0.40;0.40;;;3.20;76.40;;;;;;4997540;28;20178;-68
2022/03/04 00:29:31;;;;;;;1.33;1.33;;;3.10;75.80;;;;;;4997507;28;20253;-69
2022/03/04 00:31:57;;;;;;;0.60;0.60;;;2.90;73.30;;;;;;4997427;28;20171;-68
2022/03/04 00:34:22;;;;;;;0.30;0.30;;;2.90;74.40;;;;;;4997416;28;20625;-69
2022/03/04 00:36:49;;;;;;;0.30;0.30;;;2.90;74.60;;;;;;4997618;28;20224;-69
2022/03/04 00:39:15;;;;;;;0.38;0.38;;;2.90;75.00;;;;;;4997352;28;20223;-68
2022/03/04 00:41:41;;;;;;;0.30;0.30;;;2.80;74.00;;;;;;4997115;28;20177;-68
2022/03/04 00:44:07;;;;;;;1.45;1.35;;;2.80;74.20;;;;;;4997215;28;20197;-68
2022/03/04 00:46:34;;;;;;;0.40;0.40;;;2.80;74.90;;;;;;4997271;28;20562;-68
2022/03/04 00:49:00;;;;;;;0.40;0.40;;;2.70;75.10;;;;;;4997202;28;20466;-68
2022/03/04 00:51:25;;;;;;;0.30;0.30;;;2.70;74.90;;;;;;4996879;28;20640;-68
2022/03/04 00:53:51;;;;;;;0.40;0.40;;;2.50;74.30;;;;;;4997158;28;20451;-68
2022/03/04 00:56:17;;;;;;;0.40;0.40;;;2.60;74.80;;;;;;4997004;28;20185;-68
2022/03/04 00:58:42;;;;;;;0.30;0.30;;;2.50;74.20;;;;;;4996968;28;20211;-67
2022/03/04 01:01:08;;;;;;;0.30;0.30;;;2.50;75.20;;;;;;4996850;28;20174;-68
2022/03/04 01:03:34;;;;;;;0.30;0.30;;;2.50;76.10;;;;;;4996777;28;20198;-68
2022/03/04 01:06:04;;;;;;;0.30;0.30;;;2.40;76.30;;;;;;4996818;28;20775;-69
2022/03/04 01:08:30;;;;;;;0.30;0.30;;;2.40;76.40;;;;;;4996935;28;20184;-68
2022/03/04 01:10:55;;;;;;;0.30;0.30;;;2.40;76.80;;;;;;4996619;28;20176;-68
2022/03/04 01:13:22;;;;;;;0.30;0.30;;;2.50;75.70;;;;;;4996530;28;20213;-68
2022/03/04 01:15:48;;;;;;;0.40;0.40;;;2.40;75.20;;;;;;4996863;28;20411;-67
2022/03/04 01:18:14;;;;;;;0.40;0.40;;;2.30;75.80;;;;;;4996696;28;20204;-68
2022/03/04 01:20:40;;;;;;;0.50;0.40;;;2.30;76.50;;;;;;4996425;28;20175;-67
2022/03/04 01:23:06;;;;;;;0.53;0.53;;;2.00;76.70;;;;;;4996907;28;20196;-69
2022/03/04 01:25:32;;;;;;;0.98;0.98;;;2.00;76.10;;;;;;4996326;28;20181;-67
2022/03/04 01:27:58;;;;;;;0.40;0.40;;;2.00;76.00;;;;;;4996468;28;20164;-68
2022/03/04 01:30:24;;;;;;;0.30;0.30;;;1.90;76.80;;;;;;4996269;28;20432;-68
2022/03/04 01:32:50;;;;;;;0.37;0.37;;;2.00;76.20;;;;;;4996526;28;20623;-68
2022/03/04 01:35:15;;;;;;;0.60;0.60;;;2.10;76.10;;;;;;4996338;28;20169;-68
2022/03/04 01:37:41;;;;;;;0.30;0.30;;;2.10;76.60;;;;;;4996444;28;20173;-67
2022/03/04 01:40:09;;;;;;;0.57;0.57;;;2.00;76.90;;;;;;4995968;28;20563;-67
2022/03/04 01:42:37;;;;;;;1.95;1.67;;;2.00;77.10;;;;;;4996252;28;20189;-68
2022/03/04 01:45:09;;;;;;;0.30;0.30;;;2.00;76.00;;;;;;4996099;28;20177;-68
2022/03/04 01:47:38;;;;;;;0.30;0.30;;;1.80;75.40;;;;;;4996137;28;20169;-68
2022/03/04 01:50:05;;;;;;;0.40;0.40;;;1.70;75.30;;;;;;4995996;28;20176;-68
2022/03/04 01:52:32;;;;;;;0.30;0.30;;;1.70;74.50;;;;;;4995896;28;20179;-67
2022/03/04 01:54:57;;;;;;;0.30;0.30;;;1.80;74.30;;;;;;4995932;28;20180;-67
2022/03/04 01:57:23;;;;;;;0.30;0.30;;;1.90;73.40;;;;;;4996034;28;20565;-67
2022/03/04 01:59:49;;;;;;;0.30;0.30;;;1.80;73.60;;;;;;4995906;28;20230;-67
2022/03/04 02:02:14;;;;;;;0.40;0.40;;;1.80;73.80;;;;;;4995732;28;20175;-68
2022/03/04 02:04:40;;;;;;;0.30;0.30;;;1.80;73.20;;;;;;4995711;28;20183;-67
2022/03/04 02:07:05;;;;;;;0.40;0.40;;;1.80;73.40;;;;;;4995919;28;20291;-68
2022/03/04 02:09:31;;;;;;;0.40;0.40;;;1.80;73.50;;;;;;4995725;28;20173;-68
2022/03/04 02:11:57;;;;;;;0.30;0.30;;;1.80;73.20;;;;;;4995335;28;20677;-68
2022/03/04 02:14:23;;;;;;;0.40;0.40;;;1.80;72.70;;;;;;4978072;28;20227;-68
2022/03/04 02:16:51;;;;;;;0.40;0.40;;;1.80;73.20;;;;;;4995718;28;20184;-68
2022/03/04 02:19:18;;;;;;;2.70;2.38;;;1.80;73.60;;;;;;4995539;28;20255;-68
2022/03/04 02:21:57;;;;;;;0.32;0.32;;;1.70;72.30;;;;;;4995262;28;20244;-68
2022/03/04 02:24:24;;;;;;;0.30;0.30;;;1.70;73.20;;;;;;4995357;28;20185;-67
2022/03/04 02:26:51;;;;;;;0.30;0.30;;;1.70;74.30;;;;;;4995443;28;20297;-68
2022/03/04 02:29:17;;;;;;;0.40;0.40;;;1.70;74.50;;;;;;4995440;28;20277;-67
2022/03/04 02:31:42;;;;;;;0.30;0.30;;;1.70;74.90;;;;;;4995086;28;20612;-68
2022/03/04 02:34:08;;;;;;;0.30;0.30;;;1.70;74.10;;;;;;4995140;28;20215;-67
2022/03/04 02:36:35;;;;;;;0.30;0.30;;;1.70;74.60;;;;;;4994699;28;20642;-68
2022/03/04 02:39:01;;;;;;;0.40;0.40;;;1.60;74.80;;;;;;4977585;28;20215;-67
2022/03/04 02:41:26;;;;;;;0.30;0.30;;;1.40;75.00;;;;;;4995017;28;20172;-67
2022/03/04 02:43:52;;;;;;;2.53;0.97;;;1.40;74.90;;;;;;4994933;28;20808;-68
2022/03/04 02:46:18;;;;;;;0.40;0.40;;;1.50;74.70;;;;;;4994914;28;20899;-68
2022/03/04 02:48:44;;;;;;;0.30;0.30;;;1.60;74.10;;;;;;4994976;28;20164;-68
2022/03/04 02:51:09;;;;;;;0.40;0.40;;;1.70;72.50;;;;;;4994785;28;20176;-68
2022/03/04 02:53:35;;;;;;;0.30;0.30;;;1.70;72.60;;;;;;4994759;28;20435;-67
2022/03/04 02:56:01;;;;;;;0.40;0.40;;;1.60;72.30;;;;;;4994920;28;20179;-68
2022/03/04 02:58:27;;;;;;;0.40;0.40;;;1.70;72.70;;;;;;4994762;28;20662;-68
2022/03/04 03:00:52;;;;;;;0.30;0.30;;;1.40;70.40;;;;;;4994590;28;20668;-67
2022/03/04 03:03:18;;;;;;;0.40;0.40;;;1.40;70.80;;;;;;4994635;28;20562;-68
2022/03/04 03:05:43;;;;;;;0.33;0.33;;;1.50;72.30;;;;;;4994694;28;20582;-68
2022/03/04 03:08:10;;;;;;;0.40;0.40;;;1.50;73.60;;;;;;4994727;28;20578;-68
2022/03/04 03:10:36;;;;;;;0.40;0.40;;;1.50;73.60;;;;;;4994648;28;20168;-69
2022/03/04 03:13:02;;;;;;;0.30;0.30;;;1.50;74.20;;;;;;4993824;28;20294;-68
2022/03/04 03:15:28;;;;;;;0.30;0.30;;;1.50;74.40;;;;;;4993726;28;20169;-69
2022/03/04 03:17:54;;;;;;;1.17;1.08;;;1.40;73.80;;;;;;4993640;28;20179;-68
2022/03/04 03:20:20;;;;;;;0.40;0.40;;;1.20;73.10;;;;;;4993536;28;20168;-68
2022/03/04 03:22:46;;;;;;;0.40;0.40;;;1.00;74.10;;;;;;4993937;28;20696;-68
2022/03/04 03:25:12;;;;;;;0.33;0.33;;;1.10;73.80;;;;;;4993635;28;20246;-67
2022/03/04 03:27:38;;;;;;;0.30;0.30;;;1.20;74.80;;;;;;4993761;28;20893;-69
2022/03/04 03:30:06;;;;;;;0.30;0.30;;;1.20;74.90;;;;;;4993506;28;20184;-69
2022/03/04 03:32:32;;;;;;;0.40;0.40;;;0.80;76.90;;;;;;4993538;28;20175;-68
2022/03/04 03:34:58;;;;;;;0.40;0.40;;;0.80;74.60;;;;;;4993826;28;20642;-67
2022/03/04 03:37:23;;;;;;;0.33;0.33;;;0.90;75.30;;;;;;4993503;28;20403;-68
2022/03/04 03:39:49;;;;;;;0.40;0.40;;;1.00;75.40;;;;;;4993512;28;20517;-68
2022/03/04 03:42:15;;;;;;;0.40;0.40;;;1.10;76.10;;;;;;4993012;28;20415;-68
2022/03/04 03:44:41;;;;;;;0.30;0.30;;;1.10;75.70;;;;;;4993260;28;20439;-68
2022/03/04 03:47:07;;;;;;;0.40;0.40;;;1.20;75.50;;;;;;4993197;28;20411;-68
2022/03/04 03:49:32;;;;;;;0.40;0.40;;;1.20;74.20;;;;;;4992501;28;20172;-68
2022/03/04 03:51:58;;;;;;;0.40;0.40;;;1.00;71.80;;;;;;4993259;28;20900;-68
2022/03/04 03:54:24;;;;;;;0.40;0.40;;;1.10;72.80;;;;;;4993177;28;20196;-67
2022/03/04 03:56:49;;;;;;;0.40;0.40;;;1.20;73.20;;;;;;4993284;28;20180;-67
2022/03/04 03:59:15;;;;;;;0.50;0.50;;;1.10;72.50;;;;;;4993242;28;20200;-68
2022/03/04 04:01:41;;;;;;;0.30;0.30;;;1.10;73.50;;;;;;4993000;28;20176;-67
2022/03/04 04:04:11;;;;;;;0.40;0.40;;;1.20;73.60;;;;;;4993059;28;20188;-68
2022/03/04 04:06:38;;;;;;;0.30;0.30;;;1.10;73.00;;;;;;4993185;28;20192;-67
2022/03/04 04:09:04;;;;;;;1.35;1.35;;;1.10;73.00;;;;;;4993177;28;20172;-68
2022/03/04 04:11:32;;;;;;;0.30;0.30;;;1.10;73.50;;;;;;4953857;28;1133391;-68
2022/03/04 04:13:58;;;;;;;0.40;0.40;;;1.10;73.90;;;;;;4993937;28;20668;-68
2022/03/04 04:16:23;;;;;;;0.40;0.40;;;1.10;74.00;;;;;;4994223;28;20180;-68
2022/03/04 04:18:49;;;;;;;0.40;0.40;;;1.00;73.80;;;;;;4994081;28;20200;-67
2022/03/04 04:21:15;;;;;;;0.67;0.67;;;0.90;73.80;;;;;;4993740;28;20185;-68
2022/03/04 04:23:40;;;;;;;0.50;0.50;;;0.80;74.60;;;;;;4993845;28;20195;-68
2022/03/04 04:26:08;;;;;;;0.40;0.40;;;0.80;74.50;;;;;;4993743;28;20196;-68
2022/03/04 04:28:34;;;;;;;0.40;0.40;;;0.90;74.70;;;;;;4993899;28;20545;-68
2022/03/04 04:30:59;;;;;;;0.40;0.40;;;0.80;74.60;;;;;;4993542;28;20259;-68
2022/03/04 04:33:25;;;;;;;0.40;0.40;;;0.90;75.30;;;;;;4993714;28;20941;-68
2022/03/04 04:35:51;;;;;;;0.40;0.40;;;0.80;74.30;;;;;;4993762;28;20169;-67
2022/03/04 04:38:17;;;;;;;0.50;0.50;;;0.80;74.60;;;;;;4993735;28;20200;-67
2022/03/04 04:40:42;;;;;;;0.40;0.40;;;0.80;74.80;;;;;;4993583;28;20179;-68
2022/03/04 04:43:08;;;;;;;0.50;0.50;;;0.80;74.60;;;;;;4993824;28;20195;-68
2022/03/04 04:45:33;;;;;;;0.40;0.40;;;0.80;74.60;;;;;;4993565;28;20173;-69
2022/03/04 04:47:59;;;;;;;0.40;0.40;;;0.80;74.50;;;;;;4993578;28;20176;-68
2022/03/04 04:50:25;;;;;;;0.40;0.40;;;0.80;74.10;;;;;;4993485;28;20183;-67
2022/03/04 04:52:50;;;;;;;0.40;0.40;;;0.70;74.40;;;;;;4993582;28;20192;-67
2022/03/04 04:55:16;;;;;;;0.30;0.30;;;0.70;74.40;;;;;;4993522;28;20168;-68
2022/03/04 04:57:41;;;;;;;0.40;0.40;;;0.70;74.80;;;;;;4993632;28;20183;-68
2022/03/04 05:00:08;;;;;;;0.40;0.40;;;0.60;75.10;;;;;;4995103;28;20296;-67
2022/03/04 05:02:33;;;;;;;0.30;0.30;;;0.60;75.60;;;;;;4997102;28;20523;-67
2022/03/04 05:04:59;;;;;;;0.40;0.40;;;0.50;76.10;;;;;;4996911;28;20255;-68
2022/03/04 05:07:25;;;;;;;0.30;0.30;;;0.40;75.90;;;;;;4996996;28;20169;-68
2022/03/04 05:09:51;;;;;;;0.40;0.40;;;0.40;76.40;;;;;;4996913;28;20411;-69
2022/03/04 05:12:17;;;;;;;0.40;0.40;;;0.40;76.10;;;;;;4996650;28;20196;-68
2022/03/04 05:14:42;;;;;;;0.37;0.37;;;0.40;76.30;;;;;;4996730;28;20251;-68
2022/03/04 05:17:08;;;;;;;0.40;0.40;;;0.40;76.40;;;;;;4996696;28;20408;-67
2022/03/04 05:19:34;;;;;;;0.30;0.30;;;0.50;76.20;;;;;;4996664;28;20200;-68
2022/03/04 05:21:59;;;;;;;0.40;0.40;;;0.40;75.40;;;;;;4996582;28;20187;-68
2022/03/04 05:24:25;;;;;;;0.40;0.40;;;0.10;75.70;;;;;;4996463;28;20188;-68
2022/03/04 05:26:50;;;;;;;1.97;1.87;;;0.10;74.80;;;;;;4996661;28;20168;-68
2022/03/04 05:29:16;;;;;;;0.30;0.30;;;0.20;75.40;;;;;;4996560;28;20164;-68
2022/03/04 05:31:42;;;;;;;0.30;0.30;;;0.40;75.50;;;;;;4996339;28;20169;-67
2022/03/04 05:34:09;;;;;;;0.40;0.40;;;0.40;75.30;;;;;;4996240;28;20440;-68
2022/03/04 05:36:37;;;;;;;0.63;0.63;;;0.40;75.30;;;;;;4996416;28;20180;-68
2022/03/04 05:39:03;;;;;;;0.40;0.40;;;0.40;75.30;;;;;;4996384;28;20199;-68
2022/03/04 05:41:30;;;;;;;0.40;0.40;;;0.40;75.70;;;;;;4996175;28;20180;-68
2022/03/04 05:43:56;;;;;;;0.40;0.40;;;0.30;76.00;;;;;;4996081;28;20243;-68
2022/03/04 05:46:22;;;;;;;0.40;0.40;;;0.10;76.20;;;;;;4996298;28;20181;-67
2022/03/04 05:48:48;;;;;;;0.40;0.40;;;0.10;77.00;;;;;;4996177;28;20252;-68
2022/03/04 05:51:14;;;;;;;0.50;0.50;;;0.10;77.00;;;;;;4995893;28;20196;-68
2022/03/04 05:53:39;;;;;;;0.30;0.30;;;0.10;77.20;;;;;;4995910;28;20510;-67
2022/03/04 05:56:07;;;;;;;0.33;0.33;;;0.10;77.10;;;;;;4995886;28;20262;-68
2022/03/04 05:58:33;;;;;;;0.40;0.40;;;0.10;76.90;;;;;;4995853;28;20195;-67
2022/03/04 06:00:59;;;;;;;0.40;0.40;;;0.00;77.70;;;;;;4995798;28;20172;-67
2022/03/04 06:03:25;;;;;;;0.50;0.50;;;-0.10;76.50;;;;;;4995670;28;20634;-68
2022/03/04 06:05:51;;;;;;;0.47;0.47;;;0.00;76.60;;;;;;4995753;28;20649;-68
2022/03/04 06:08:17;;;;;;;0.40;0.40;;;0.10;76.80;;;;;;4995834;28;20181;-68
2022/03/04 06:10:43;;;;;;;1.40;1.40;;;0.20;76.70;;;;;;4994899;28;20176;-68
2022/03/04 06:13:09;;;;;;;0.40;0.40;;;0.20;76.90;;;;;;4995389;28;20587;-67
2022/03/04 06:15:35;;;;;;;0.50;0.50;;;0.20;76.90;;;;;;4995642;28;20254;-68
2022/03/04 06:18:01;;;;;;;0.87;0.87;;;0.20;77.30;;;;;;4995655;28;20172;-68
2022/03/04 06:20:27;;;;;;;0.60;0.60;;;0.10;77.60;;;;;;4995398;28;20180;-67
2022/03/04 06:22:53;;;;;;;0.40;0.40;;;0.10;77.40;;;;;;4995521;28;20250;-68
2022/03/04 06:25:19;;;;;;;0.50;0.50;;;0.20;77.70;;;;;;4995595;28;20176;-68
2022/03/04 06:27:57;;;;;;;0.40;0.40;;;0.30;77.70;;;;;;4995350;28;20179;-67
2022/03/04 06:30:24;;;;;;;0.40;0.40;;;0.20;76.20;;;;;;4995306;28;20172;-68
2022/03/04 06:32:51;;;;;;;0.43;0.43;;;0.30;76.90;;;;;;4995374;28;20184;-67
2022/03/04 06:35:17;;;;;;;0.40;0.40;;;0.40;77.20;;;;;;4995229;28;20211;-67
2022/03/04 06:37:43;;;;;;;0.50;0.50;;;0.50;77.40;;;;;;4995091;28;20203;-68
2022/03/04 06:40:10;;;;;;;0.90;0.90;;;0.60;76.90;;;;;;4994852;28;20238;-68
2022/03/04 06:42:35;;;;;;;0.43;0.43;;;0.60;76.40;;;;;;4995102;28;20400;-67
2022/03/04 06:45:01;;;;;;;0.53;0.53;;;0.60;76.00;;;;;;4995124;28;20722;-68
2022/03/04 06:47:27;;;;;;;0.40;0.40;;;0.60;76.50;;;;;;4995111;28;20451;-67
2022/03/04 06:49:53;;;;;;;0.40;0.40;;;0.50;75.00;;;;;;4994939;28;20812;-67
2022/03/04 06:52:21;;;;;;;0.40;0.40;;;0.50;74.40;;;;;;4995066;28;20172;-68
2022/03/04 06:54:47;;;;;;;0.40;0.40;;;0.40;73.50;;;;;;4995219;28;20176;-68
2022/03/04 06:57:13;;;;;;;0.55;0.55;;;0.40;74.60;;;;;;4994951;28;20215;-68
2022/03/04 06:59:38;;;;;;;0.40;0.40;;;0.50;76.00;;;;;;4994677;28;20234;-68
2022/03/04 07:02:06;;;;;;;0.50;0.50;;;0.50;75.50;;;;;;4994717;28;20176;-67
2022/03/04 07:04:32;;;;;;;0.30;0.30;;;0.60;75.80;;;;;;4994581;28;20211;-68
2022/03/04 07:06:57;;;;;;;0.40;0.40;;;0.70;75.90;;;;;;4994606;28;20169;-67
2022/03/04 07:09:23;;;;;;;0.30;0.30;;;0.80;75.20;;;;;;4994657;28;20187;-68
2022/03/04 07:11:49;;;;;;;0.40;0.40;;;0.80;75.20;;;;;;4994349;28;20192;-67
2022/03/04 07:14:14;;;;;;;0.40;0.40;;;0.90;75.20;;;;;;4994423;28;20201;-68
2022/03/04 07:16:40;;;;;;;0.40;0.40;;;0.90;74.70;;;;;;4994646;28;20263;-68
2022/03/04 07:19:06;;;;;;;0.30;0.30;;;1.00;73.80;;;;;;4977078;28;20207;-68
2022/03/04 07:21:31;;;;;;;0.33;0.33;;;1.20;75.30;;;;;;4994444;28;20247;-67
2022/03/04 07:23:57;;;;;;;0.30;0.30;;;2.10;72.50;;;;;;4994231;28;20211;-68
2022/03/04 07:26:22;;;;;;;0.30;0.30;;;3.80;65.10;;;;;;4994492;28;20232;-68
2022/03/04 07:28:48;;;;;;;0.30;0.30;;;6.10;58.90;;;;;;4994527;28;20180;-67
2022/03/04 07:31:14;;;;;;;0.40;0.40;;;7.50;53.10;;;;;;4976695;28;20179;-67
2022/03/04 07:33:40;;;;;;;0.40;0.40;;;8.50;50.60;;;;;;4994151;28;20192;-68
2022/03/04 07:36:05;;;;;;;0.40;0.40;;;9.90;45.70;;;;;;4994222;28;20534;-67
2022/03/04 07:38:31;;;;;;;0.30;0.30;;;10.90;42.60;;;;;;4994151;28;20203;-68
2022/03/04 07:40:58;;;;;;;0.37;0.37;;;12.20;39.10;;;;;;4993935;28;20745;-69
2022/03/04 07:43:25;;;;;;;3.55;2.35;;;13.10;37.90;;;;;;4994033;28;20419;-67
2022/03/04 07:45:50;;;;;;;0.40;0.40;;;14.10;34.50;;;;;;4994073;28;20665;-68
2022/03/04 07:48:16;;;;;;;2.47;2.20;;;14.90;33.30;;;;;;4994199;28;20168;-68
2022/03/04 07:50:42;;;;;;;0.50;0.50;;;15.00;31.30;;;;;;4993901;28;20211;-69
2022/03/04 07:53:07;;;;;;;0.40;0.40;;;14.80;31.00;;;;;;4994159;28;20189;-67
2022/03/04 07:55:33;;;;;;;0.30;0.30;;;15.30;30.50;;;;;;4994381;28;20199;-68
2022/03/04 07:57:59;;;;;;;2.73;1.30;;;16.00;29.40;;;;;;4994072;28;20222;-68
2022/03/04 08:00:26;;;;;;;0.47;0.47;;;16.50;28.50;;;;;;4993867;28;20215;-68
2022/03/04 08:02:52;;;;;;;0.30;0.30;;;16.80;27.90;;;;;;4994088;28;20187;-69
2022/03/04 08:05:18;;;;;;;0.50;0.50;;;17.20;27.80;;;;;;4993933;28;20399;-68
2022/03/04 08:07:44;;;;;;;0.30;0.30;;;17.70;26.60;;;;;;4993936;28;20403;-69
2022/03/04 08:10:11;;;;;;;1.33;1.23;;;17.60;24.80;;;;;;4993791;28;20419;-68
2022/03/04 08:12:37;;;;;;;0.40;0.40;;;17.30;25.50;;;;;;4993852;28;20211;-68
2022/03/04 08:15:06;;;;;;;1.27;1.17;;;16.10;24.00;;;;;;4993799;28;20422;-68
2022/03/04 08:17:32;;;;;;;0.30;0.30;;;15.90;24.80;;;;;;4993825;28;20443;-69
2022/03/04 08:19:57;;;;;;;0.50;0.50;;;15.30;24.90;;;;;;4993568;28;20479;-68
2022/03/04 08:22:23;;;;;;;0.30;0.30;;;15.20;26.00;;;;;;4993929;28;20227;-69
2022/03/04 08:24:49;;;;;;;0.30;0.30;;;16.00;25.50;;;;;;4993876;28;20171;-68
2022/03/04 08:27:15;;;;;;;0.80;0.80;;;17.20;24.20;;;;;;4993865;28;20172;-68
2022/03/04 08:29:40;;;;;;;0.33;0.33;;;17.70;23.80;;;;;;4993854;28;20180;-69
2022/03/04 08:32:06;;;;;;;0.40;0.40;;;17.30;23.70;;;;;;4993638;28;20169;-68
2022/03/04 08:34:32;;;;;;;0.30;0.30;;;15.90;24.50;;;;;;4994743;28;20560;-68
2022/03/04 08:36:58;;;;;;;0.90;0.90;;;16.10;24.00;;;;;;4997618;28;20546;-68
2022/03/04 08:39:23;;;;;;;0.40;0.40;;;15.40;24.30;;;;;;4979924;28;20204;-69
2022/03/04 08:41:49;;;;;;;0.40;0.40;;;15.00;24.70;;;;;;4997327;28;20207;-68
2022/03/04 08:44:15;;;;;;;0.37;0.37;;;15.50;24.80;;;;;;4997515;28;20187;-69
2022/03/04 08:46:40;;;;;;;0.40;0.40;;;16.10;24.40;;;;;;4997442;28;20265;-69
2022/03/04 08:49:07;;;;;;;0.80;0.80;;;16.70;25.40;;;;;;4997227;28;20637;-69
2022/03/04 08:51:32;;;;;;;0.30;0.30;;;15.90;24.40;;;;;;4997216;28;20172;-68
2022/03/04 08:53:58;;;;;;;1.00;1.00;;;14.40;25.20;;;;;;4997030;28;20437;-67
2022/03/04 08:56:24;;;;;;;0.30;0.30;;;15.40;26.00;;;;;;4997236;28;20214;-68
2022/03/04 08:58:50;;;;;;;0.30;0.30;;;17.00;25.40;;;;;;4997146;28;20991;-69
2022/03/04 09:01:15;;;;;;;0.87;0.87;;;18.90;23.90;;;;;;4979346;28;20173;-68
2022/03/04 09:03:41;;;;;;;0.30;0.30;;;19.60;23.20;;;;;;4997014;28;20207;-70
2022/03/04 09:06:07;;;;;;;0.40;0.40;;;19.20;23.20;;;;;;4997078;28;20255;-68
2022/03/04 09:08:33;;;;;;;0.50;0.50;;;20.10;22.90;;;;;;4996928;28;20180;-69
2022/03/04 09:10:59;;;;;;;0.57;0.57;;;20.00;22.30;;;;;;4996841;28;20179;-69
2022/03/04 09:13:25;;;;;;;0.53;0.53;;;20.00;22.60;;;;;;4996600;28;20211;-69
2022/03/04 09:15:50;;;;;;;0.30;0.30;;;19.70;23.50;;;;;;4996554;28;20416;-68
2022/03/04 09:18:16;;;;;;;0.77;0.77;;;20.80;22.80;;;;;;4996496;28;20252;-68
2022/03/04 09:20:42;;;;;;;0.30;0.30;;;22.00;22.20;;;;;;4996504;28;20170;-70
2022/03/04 09:23:08;;;;;;;1.10;1.10;;;22.60;21.30;;;;;;4996662;28;20184;-69
2022/03/04 09:25:34;;;;;;;0.40;0.30;;;23.10;20.00;;;;;;4996669;28;20426;-70
2022/03/04 09:28:02;;;;;;;0.60;0.50;;;23.00;19.50;;;;;;4979179;28;20171;-69
2022/03/04 09:30:28;;;;;;;1.27;1.17;;;23.50;19.80;;;;;;4996404;28;20409;-69
2022/03/04 09:32:54;;;;;;;0.50;0.50;;;23.50;19.40;;;;;;4996314;28;20433;-70
2022/03/04 09:35:19;;;;;;;0.30;0.30;;;22.90;19.90;;;;;;4996457;28;20408;-68
2022/03/04 09:37:45;;;;;;;0.80;0.80;;;21.80;20.00;;;;;;4996509;28;20204;-68
2022/03/04 09:40:12;;;;;;;0.77;0.77;;;21.30;20.70;;;;;;4996149;28;20678;-68
2022/03/04 09:42:39;;;;;;;0.63;0.63;;;21.70;19.90;;;;;;4996291;28;20213;-69
2022/03/04 09:45:05;;;;;;;0.33;0.33;;;21.60;20.70;;;;;;4978550;28;20463;-68
2022/03/04 09:47:31;;;;;;;0.40;0.40;;;21.30;19.70;;;;;;4996129;28;20911;-69
2022/03/04 09:49:58;;;;;;;0.30;0.30;;;20.60;19.90;;;;;;4996148;28;20411;-68
2022/03/04 09:52:24;;;;;;;0.30;0.30;;;19.90;19.10;;;;;;4996023;28;20494;-69
2022/03/04 09:54:52;;;;;;;1.30;1.30;;;19.30;19.80;;;;;;4996047;28;20423;-69
2022/03/04 09:57:18;;;;;;;0.30;0.30;;;18.40;19.80;;;;;;4996086;28;20419;-69
2022/03/04 09:59:45;;;;;;;0.30;0.30;;;17.20;20.00;;;;;;4995664;28;20481;-68
2022/03/04 10:02:12;;;;;;;0.50;0.50;;;18.10;20.70;;;;;;4995675;28;20458;-70
2022/03/04 10:04:38;;;;;;;0.40;0.40;;;19.30;19.60;;;;;;4995695;28;20514;-68
2022/03/04 10:07:16;;;;;;;0.30;0.30;;;20.40;20.40;;;;;;4995817;28;20444;-69
2022/03/04 10:09:46;;;;;;;0.30;0.30;;;22.00;20.30;;;;;;4995818;28;20412;-69
2022/03/04 10:12:14;;;;;;;0.50;0.50;;;22.60;19.00;;;;;;4995408;28;20445;-69
2022/03/04 10:15:01;;;;;;;0.30;0.30;;;22.00;18.80;;;;;;4995541;28;20427;-69
2022/03/04 10:17:28;;;;;;;0.30;0.30;;;21.60;19.10;;;;;;4995675;28;20410;-69
2022/03/04 10:19:58;;;;;;;0.77;0.77;;;21.40;19.60;;;;;;4977874;28;20964;-69
2022/03/04 10:22:36;;;;;;;1.17;1.17;;;21.70;19.20;;;;;;4995564;28;20428;-70
2022/03/04 10:25:13;;;;;;;0.97;0.97;;;19.60;19.40;;;;;;4995658;28;20399;-68
2022/03/04 10:27:39;;;;;;;0.70;0.70;;;19.00;22.30;;;;;;4995572;28;20885;-68
2022/03/04 10:30:05;;;;;;;0.30;0.30;;;20.30;21.20;;;;;;4995289;28;20401;-68
2022/03/04 10:32:32;;;;;;;0.30;0.30;;;21.00;19.20;;;;;;4995387;28;20182;-69
2022/03/04 10:35:05;;;;;;;0.40;0.40;;;21.80;19.50;;;;;;4995193;28;20415;-68
2022/03/04 10:37:46;;;;;;;0.40;0.40;;;23.30;19.30;;;;;;4995250;28;20465;-70
2022/03/04 10:40:15;;;;;;;0.63;0.63;;;24.00;18.40;;;;;;4977476;28;21273;-69
2022/03/04 10:42:54;;;;;;;0.40;0.40;;;24.20;17.80;;;;;;4995101;28;20434;-69
2022/03/04 10:45:22;;;;;;;2.10;2.00;;;23.00;18.80;;;;;;4995041;28;20862;-69
2022/03/04 10:48:02;;;;;;;0.53;0.53;;;21.00;19.80;;;;;;4995210;28;20417;-69
2022/03/04 10:50:32;;;;;;;0.60;0.60;;;20.30;19.60;;;;;;4994812;28;20444;-69
2022/03/04 10:53:07;;;;;;;0.30;0.30;;;20.40;20.30;;;;;;4995165;28;20423;-69
2022/03/04 10:55:44;;;;;;;0.30;0.30;;;21.20;19.70;;;;;;4995090;28;20422;-70
2022/03/04 10:58:24;;;;;;;0.40;0.40;;;21.30;19.50;;;;;;4994301;28;20410;-69
2022/03/04 11:00:53;;;;;;;0.30;0.30;;;20.60;18.90;;;;;;4977282;28;20426;-69
2022/03/04 11:03:21;;;;;;;0.50;0.50;;;20.30;19.90;;;;;;4994598;28;20474;-69
2022/03/04 11:05:49;;;;;;;1.37;1.37;;;20.60;20.00;;;;;;4994596;28;20959;-69
2022/03/04 11:08:15;;;;;;;0.30;0.30;;;20.30;20.10;;;;;;4994718;28;20492;-68
2022/03/04 11:10:41;;;;;;;0.33;0.33;;;19.50;19.70;;;;;;4994371;28;20799;-69
2022/03/04 11:13:09;;;;;;;0.93;0.93;;;19.40;19.90;;;;;;4994430;28;20444;-68
2022/03/04 11:15:36;;;;;;;0.30;0.30;;;18.80;19.40;;;;;;4994481;28;20421;-69
2022/03/04 11:18:04;;;;;;;0.67;0.67;;;18.30;20.00;;;;;;4994677;28;20410;-70
2022/03/04 11:20:30;;;;;;;0.30;0.30;;;17.40;20.40;;;;;;4994193;28;20468;-68
2022/03/04 11:22:56;;;;;;;0.40;0.40;;;16.50;20.20;;;;;;4994415;28;20427;-68
2022/03/04 11:25:22;;;;;;;0.33;0.33;;;14.90;20.40;;;;;;4994351;28;20898;-68
2022/03/04 11:27:53;;;;;;;0.40;0.40;;;13.40;23.10;;;;;;4994345;28;20406;-68
2022/03/04 11:30:41;;;;;;;0.30;0.30;;;12.10;23.40;;;;;;4994329;28;20414;-69
2022/03/04 11:33:17;;;;;;;0.30;0.30;;;11.50;24.10;;;;;;4994417;28;20466;-69
2022/03/04 11:35:42;;;;;;;0.30;0.30;;;11.20;24.70;;;;;;4994452;28;20183;-68
2022/03/04 11:38:11;;;;;;;0.30;0.30;;;11.20;25.20;;;;;;4994252;28;20176;-68
2022/03/04 11:40:41;;;;;;;0.80;0.80;;;11.00;27.00;;;;;;4976505;28;20208;-68
2022/03/04 11:43:08;;;;;;;0.40;0.40;;;10.60;25.60;;;;;;4994369;28;20192;-68
2022/03/04 11:45:36;;;;;;;0.63;0.63;;;10.70;26.40;;;;;;4994124;28;20164;-73
2022/03/04 11:48:08;;;;;;;0.30;0.30;;;10.80;25.80;;;;;;4993890;28;20263;-68
2022/03/04 11:50:54;;;;;;;2.67;2.25;;;10.50;25.80;;;;;;4994099;28;20539;-69
2022/03/04 11:53:25;;;;;;;0.30;0.30;;;10.00;24.90;;;;;;4993608;28;20203;-69
2022/03/04 11:56:11;;;;;;;2.40;1.83;;;10.10;25.00;;;;;;4994140;28;20585;-69
2022/03/04 11:58:58;;;;;;;0.30;0.30;;;10.10;24.70;;;;;;4993799;28;20223;-69
2022/03/04 12:01:33;;;;;;;0.40;0.40;;;10.00;24.90;;;;;;4993801;28;20161;-69
2022/03/04 12:04:18;;;;;;;0.40;0.40;;;10.40;26.70;;;;;;4994060;28;20568;-68
2022/03/04 12:07:04;;;;;;;0.30;0.30;;;10.80;25.50;;;;;;4994134;28;20222;-68
2022/03/04 12:09:31;;;;;;;0.50;0.50;;;10.80;25.50;;;;;;4994993;28;20594;-69
2022/03/04 12:12:24;;;;;;;0.30;0.30;;;10.90;27.30;;;;;;4997557;28;20191;-69
2022/03/04 12:15:15;;;;;;;0.30;0.30;;;10.70;27.50;;;;;;4995443;28;20188;-69
2022/03/04 12:18:05;;;;;;;0.30;0.30;;;10.70;25.10;;;;;;4997777;28;20203;-68
2022/03/04 12:20:39;;;;;;;0.30;0.30;;;10.90;24.40;;;;;;4997807;28;20294;-68
2022/03/04 12:23:16;;;;;;;0.30;0.30;;;11.10;24.30;;;;;;4997768;28;20187;-68
2022/03/04 12:25:54;;;;;;;0.30;0.30;;;11.10;26.00;;;;;;4997890;28;20645;-69
2022/03/04 12:28:20;;;;;;;0.75;0.75;;;11.20;24.90;;;;;;4980236;28;20267;-67
2022/03/04 12:31:06;;;;;;;0.40;0.40;;;11.00;24.70;;;;;;4997447;28;20603;-68
2022/03/04 12:33:37;;;;;;;1.17;1.17;;;10.60;24.90;;;;;;4997420;28;20208;-68
2022/03/04 12:36:08;;;;;;;2.05;1.65;;;10.10;25.00;;;;;;4980015;28;20199;-70
2022/03/04 12:38:45;;;;;;;0.40;0.40;;;10.00;26.90;;;;;;4997377;28;20625;-68
2022/03/04 12:41:18;;;;;;;0.30;0.30;;;10.10;25.40;;;;;;4997469;28;20180;-68
2022/03/04 12:43:49;;;;;;;0.30;0.30;;;10.30;24.90;;;;;;4997317;28;20196;-68
2022/03/04 12:46:16;;;;;;;0.40;0.40;;;10.50;25.10;;;;;;4997467;28;20171;-69
2022/03/04 12:48:42;;;;;;;0.80;0.80;;;10.70;24.50;;;;;;4997692;28;20168;-69
2022/03/04 12:51:19;;;;;;;0.30;0.30;;;10.90;23.80;;;;;;4997071;28;20176;-69
2022/03/04 12:53:45;;;;;;;0.30;0.30;;;11.00;24.10;;;;;;4997234;28;20621;-69